Time;durP1;ratioP1;P1;durP2;ratioP2;P2;SDS_P1;SDS_P2;PMS_P1;PMS_P2;Temp;Humidity;BMP_temperature;BMP_pressure;BME280_temperature;BME280_humidity;BME280_pressure;Samples;Min_cycle;Max_cycle;Signal;HPM_P1;HPM_P2
2024/02/20 00:01:09;;;;;;;4.63;1.90;;;;;;;9.26;100.00;101450.88;5053984;28;20516;-66
2024/02/20 00:03:36;;;;;;;3.20;1.50;;;;;;;9.26;100.00;101450.06;5054169;28;20532;-66
2024/02/20 00:06:03;;;;;;;17.03;2.70;;;;;;;9.26;100.00;101456.28;5054226;28;20488;-66
2024/02/20 00:08:30;;;;;;;4.87;2.37;;;;;;;9.27;100.00;101451.69;5054117;28;20954;-66
2024/02/20 00:10:59;;;;;;;3.80;1.70;;;;;;;9.25;100.00;101449.25;5053855;28;20446;-66
2024/02/20 00:13:26;;;;;;;4.07;2.37;;;;;;;9.27;100.00;101449.78;5054417;28;20477;-66
2024/02/20 00:15:52;;;;;;;4.33;2.40;;;;;;;9.25;100.00;101443.84;5060819;22;20898;-67
2024/02/20 00:18:20;;;;;;;4.07;1.67;;;;;;;9.27;100.00;101448.97;5034099;28;20439;-68
2024/02/20 00:20:47;;;;;;;4.93;2.60;;;;;;;9.29;100.00;101452.22;5034404;28;20492;-69
2024/02/20 00:23:14;;;;;;;3.33;1.77;;;;;;;9.28;100.00;101456.81;5034037;28;20828;-69
2024/02/20 00:25:41;;;;;;;2.80;1.33;;;;;;;9.30;100.00;101457.38;5034326;28;20486;-69
2024/02/20 00:28:09;;;;;;;5.30;2.37;;;;;;;9.36;100.00;101452.75;5033496;28;20493;-69
2024/02/20 00:30:36;;;;;;;4.73;1.90;;;;;;;9.31;100.00;101452.75;5033547;28;20860;-69
2024/02/20 00:33:02;;;;;;;5.10;2.70;;;;;;;9.26;100.00;101458.97;5033472;28;20513;-68
2024/02/20 00:35:29;;;;;;;5.33;1.80;;;;;;;9.25;100.00;101454.66;5033808;28;20443;-68
2024/02/20 00:37:56;;;;;;;4.87;2.23;;;;;;;9.29;100.00;101455.72;5033484;28;20999;-68
2024/02/20 00:40:22;;;;;;;5.20;2.37;;;;;;;9.27;100.00;101463.31;5033964;28;20817;-69
2024/02/20 00:42:49;;;;;;;3.93;1.67;;;;;;;9.32;100.00;101459.78;5033438;28;20474;-69
2024/02/20 00:45:17;;;;;;;2.67;1.47;;;;;;;9.30;100.00;101456.56;5033412;28;20435;-67
2024/02/20 00:47:45;;;;;;;7.47;2.60;;;;;;;9.34;100.00;101461.16;5033584;28;20570;-69
2024/02/20 00:50:12;;;;;;;4.83;1.80;;;;;;;9.25;100.00;101470.88;5033611;28;20443;-69
2024/02/20 00:52:38;;;;;;;6.17;1.90;;;;;;;9.27;100.00;101466.00;5033553;28;20494;-67
2024/02/20 00:55:06;;;;;;;4.27;2.20;;;;;;;9.24;100.00;101463.03;5033840;28;20450;-66
2024/02/20 00:57:33;;;;;;;9.40;2.80;;;;;;;9.23;100.00;101467.63;5033601;28;20462;-66
2024/02/20 00:59:59;;;;;;;4.17;1.97;;;;;;;9.25;100.00;101454.66;5033509;28;20526;-66
2024/02/20 01:02:28;;;;;;;5.87;1.80;;;;;;;9.26;100.00;101466.28;5033163;28;20963;-66
2024/02/20 01:04:54;;;;;;;4.60;2.47;;;;;;;9.23;100.00;101461.41;5033438;28;20447;-66
2024/02/20 01:07:21;;;;;;;7.27;3.13;;;;;;;9.28;100.00;101466.81;5033364;28;20544;-67
2024/02/20 01:09:47;;;;;;;3.90;2.00;;;;;;;9.31;100.00;101463.59;5033394;28;20475;-67
2024/02/20 01:12:14;;;;;;;5.10;2.17;;;;;;;9.22;100.00;101466.00;5033367;28;20467;-67
2024/02/20 01:14:42;;;;;;;3.90;2.10;;;;;;;9.23;100.00;101461.41;5033559;28;20458;-67
2024/02/20 01:17:09;;;;;;;7.67;2.07;;;;;;;9.24;100.00;101463.03;5033174;28;20818;-67
2024/02/20 01:19:37;;;;;;;4.87;1.60;;;;;;;9.22;100.00;101459.81;5033342;28;20436;-67
2024/02/20 01:22:05;;;;;;;5.93;2.83;;;;;;;9.18;100.00;101459.53;5033565;28;20975;-67
2024/02/20 01:24:32;;;;;;;2.90;1.60;;;;;;;9.18;100.00;101453.31;5033296;28;20447;-67
2024/02/20 01:26:58;;;;;;;3.83;1.90;;;;;;;9.13;100.00;101459.53;5032965;28;20646;-68
2024/02/20 01:29:25;;;;;;;3.67;2.03;;;;;;;9.11;100.00;101450.84;5033584;28;20449;-67
2024/02/20 01:31:53;;;;;;;4.80;2.20;;;;;;;9.08;100.00;101454.94;5033124;28;20467;-67
2024/02/20 01:34:19;;;;;;;3.93;1.90;;;;;;;9.09;100.00;101455.75;5033600;28;20443;-68
2024/02/20 01:36:47;;;;;;;3.60;1.33;;;;;;;9.06;100.00;101456.25;5033090;28;20489;-67
2024/02/20 01:39:14;;;;;;;3.97;2.00;;;;;;;9.08;100.00;101454.13;5032924;28;20935;-67
2024/02/20 01:41:40;;;;;;;5.10;2.17;;;;;;;9.08;100.00;101451.41;5032930;28;20526;-69
2024/02/20 01:44:09;;;;;;;4.33;1.67;;;;;;;9.08;100.00;101449.53;5033147;28;20518;-69
2024/02/20 01:46:35;;;;;;;3.93;1.90;;;;;;;9.13;100.00;101454.13;5033184;28;20449;-69
2024/02/20 01:49:02;;;;;;;5.13;1.90;;;;;;;9.13;100.00;101439.78;5032991;28;20525;-69
2024/02/20 01:51:30;;;;;;;3.27;1.90;;;;;;;9.10;100.00;101449.25;5032818;28;20534;-68
2024/02/20 01:54:00;;;;;;;4.47;2.20;;;;;;;9.08;100.00;101454.94;5033477;28;20482;-68
2024/02/20 01:56:27;;;;;;;5.37;2.10;;;;;;;9.09;100.00;101451.13;5033212;28;20501;-68
2024/02/20 01:58:53;;;;;;;6.47;1.80;;;;;;;9.08;100.00;101454.13;5032904;28;20514;-68
2024/02/20 02:01:23;;;;;;;3.00;1.60;;;;;;;9.12;100.00;101446.25;5032872;28;20483;-68
2024/02/20 02:03:49;;;;;;;3.87;1.77;;;;;;;9.11;100.00;101450.84;5032724;28;20467;-68
2024/02/20 02:06:16;;;;;;;4.23;2.20;;;;;;;9.06;100.00;101445.44;5032569;28;20927;-68
2024/02/20 02:08:42;;;;;;;3.73;1.30;;;;;;;9.08;100.00;101456.81;5033052;28;20483;-68
2024/02/20 02:11:10;;;;;;;4.83;1.83;;;;;;;9.07;100.00;101447.06;5035012;28;20461;-68
2024/02/20 02:13:37;;;;;;;4.40;2.20;;;;;;;9.06;100.00;101446.25;5036361;28;20521;-68
2024/02/20 02:16:04;;;;;;;4.40;1.87;;;;;;;9.02;100.00;101449.78;5036224;28;20485;-68
2024/02/20 02:18:31;;;;;;;7.20;2.60;;;;;;;9.00;100.00;101454.66;5036788;28;20527;-68
2024/02/20 02:20:57;;;;;;;4.80;2.20;;;;;;;8.96;100.00;101450.84;5036126;28;21022;-68
2024/02/20 02:23:24;;;;;;;4.67;1.63;;;;;;;9.01;100.00;101448.97;5036625;28;20459;-68
2024/02/20 02:25:51;;;;;;;3.30;1.33;;;;;;;9.05;100.00;101449.25;5035918;28;20978;-68
2024/02/20 02:28:19;;;;;;;3.80;1.33;;;;;;;9.03;100.00;101445.97;5036233;28;20478;-68
2024/02/20 02:30:46;;;;;;;5.23;2.03;;;;;;;9.03;100.00;101452.22;5036692;28;20494;-68
2024/02/20 02:33:12;;;;;;;2.43;1.20;;;;;;;8.91;100.00;101448.97;5036228;28;20550;-68
2024/02/20 02:35:39;;;;;;;3.23;1.87;;;;;;;8.92;100.00;101455.19;5036098;28;20442;-68
2024/02/20 02:38:06;;;;;;;3.83;1.70;;;;;;;8.94;100.00;101450.28;5035982;28;20530;-68
2024/02/20 02:40:32;;;;;;;3.10;1.23;;;;;;;8.92;100.00;101455.97;5036055;28;20534;-68
2024/02/20 02:42:59;;;;;;;3.00;1.60;;;;;;;8.94;100.00;101453.00;5035520;28;20701;-68
2024/02/20 02:45:31;;;;;;;2.67;1.17;;;;;;;9.01;100.00;101461.66;5035624;28;21018;-68
2024/02/20 02:47:57;;;;;;;3.10;1.10;;;;;;;9.00;100.00;101460.06;5035917;28;20529;-68
2024/02/20 02:50:24;;;;;;;3.17;1.40;;;;;;;9.01;100.00;101459.78;5036408;28;20526;-69
2024/02/20 02:52:51;;;;;;;3.43;1.83;;;;;;;8.96;100.00;101457.06;5036082;28;20537;-68
2024/02/20 02:55:20;;;;;;;3.40;1.40;;;;;;;8.98;100.00;101464.91;5036059;28;20505;-68
2024/02/20 02:57:47;;;;;;;4.03;1.80;;;;;;;8.94;100.00;101463.81;5035606;28;20538;-68
2024/02/20 03:00:15;;;;;;;3.73;1.77;;;;;;;8.94;100.00;101463.81;5035600;28;20546;-68
2024/02/20 03:02:43;;;;;;;3.80;1.03;;;;;;;8.93;100.00;101459.50;5035139;28;21034;-68
2024/02/20 03:05:09;;;;;;;3.90;1.70;;;;;;;8.92;100.00;101457.88;5036019;28;20470;-66
2024/02/20 03:07:36;;;;;;;3.40;1.50;;;;;;;8.96;100.00;101457.06;5035109;28;20994;-68
2024/02/20 03:10:03;;;;;;;2.70;1.17;;;;;;;8.94;100.00;101459.25;5035702;28;20997;-67
2024/02/20 03:12:30;;;;;;;2.83;1.47;;;;;;;8.96;100.00;101467.88;5034967;28;20463;-69
2024/02/20 03:14:57;;;;;;;3.70;1.63;;;;;;;8.92;100.00;101465.97;5035393;28;20457;-68
2024/02/20 03:17:24;;;;;;;2.90;1.20;;;;;;;8.89;100.00;101470.00;5034842;28;20450;-69
2024/02/20 03:19:52;;;;;;;3.40;1.23;;;;;;;8.92;100.00;101466.78;5035245;28;20474;-69
2024/02/20 03:22:19;;;;;;;3.87;1.47;;;;;;;8.88;100.00;101468.41;5035097;28;20467;-69
2024/02/20 03:24:45;;;;;;;2.87;1.37;;;;;;;8.88;100.00;101471.09;5035692;28;20439;-69
2024/02/20 03:27:12;;;;;;;1.90;0.60;;;;;;;8.86;100.00;101467.06;5035102;28;21010;-69
2024/02/20 03:29:40;;;;;;;3.93;1.10;;;;;;;8.82;100.00;101467.59;5034754;28;20521;-69
2024/02/20 03:32:07;;;;;;;3.50;1.10;;;;;;;8.84;100.00;101470.00;5035608;28;20505;-67
2024/02/20 03:34:34;;;;;;;2.60;0.97;;;;;;;8.86;100.00;101477.88;5034888;28;20532;-69
2024/02/20 03:37:01;;;;;;;2.13;0.97;;;;;;;8.84;100.00;101481.63;5034564;28;20526;-66
2024/02/20 03:39:28;;;;;;;1.90;0.80;;;;;;;8.74;100.00;101481.63;5034953;28;20439;-66
2024/02/20 03:41:55;;;;;;;2.30;0.73;;;;;;;8.82;100.00;101478.41;5034730;28;20557;-68
2024/02/20 03:44:21;;;;;;;3.17;1.40;;;;;;;8.83;100.00;101492.72;5034543;28;20447;-68
2024/02/20 03:46:48;;;;;;;2.13;0.80;;;;;;;8.80;100.00;101488.63;5034680;28;20919;-69
2024/02/20 03:49:15;;;;;;;2.00;0.70;;;;;;;8.77;100.00;101481.09;5034566;28;20939;-69
2024/02/20 03:51:44;;;;;;;1.73;0.53;;;;;;;8.65;100.00;101490.50;5035169;28;20446;-69
2024/02/20 03:54:12;;;;;;;2.63;1.13;;;;;;;8.69;100.00;101495.09;5034604;28;20442;-67
2024/02/20 03:56:38;;;;;;;2.37;0.70;;;;;;;8.69;100.00;101495.09;5034437;28;20530;-67
2024/02/20 03:59:05;;;;;;;2.23;0.70;;;;;;;8.74;100.00;101491.59;5034485;28;20439;-67
2024/02/20 04:01:31;;;;;;;2.37;0.97;;;;;;;8.65;100.00;101488.63;5034378;28;20470;-68
2024/02/20 04:03:58;;;;;;;2.10;0.70;;;;;;;8.65;100.00;101493.22;5034639;28;20526;-67
2024/02/20 04:06:25;;;;;;;1.97;0.80;;;;;;;8.72;100.00;101497.28;5034299;28;20530;-67
2024/02/20 04:08:51;;;;;;;2.40;0.80;;;;;;;8.73;100.00;101498.91;5034200;28;20570;-67
2024/02/20 04:11:19;;;;;;;2.07;0.90;;;;;;;8.75;100.00;101504.84;5034158;28;20530;-68
2024/02/20 04:13:47;;;;;;;2.07;0.73;;;;;;;8.75;100.00;101502.13;5034087;28;20451;-68
2024/02/20 04:16:13;;;;;;;1.70;0.50;;;;;;;8.73;100.00;101507.00;5033834;28;20485;-67
2024/02/20 04:18:40;;;;;;;1.80;0.57;;;;;;;8.64;100.00;101508.59;5034085;28;20450;-67
2024/02/20 04:21:07;;;;;;;2.23;0.90;;;;;;;8.77;100.00;101510.81;5034390;28;20561;-67
2024/02/20 04:23:34;;;;;;;2.73;0.83;;;;;;;8.77;100.00;101518.91;5033987;28;20459;-67
2024/02/20 04:26:00;;;;;;;1.93;0.67;;;;;;;8.81;100.00;101519.19;5033978;28;20470;-67
2024/02/20 04:28:34;;;;;;;2.27;0.70;;;;;;;8.78;100.00;101522.41;5033859;28;20489;-67
2024/02/20 04:31:01;;;;;;;2.40;0.70;;;;;;;8.76;100.00;101525.38;5033674;28;20459;-67
2024/02/20 04:33:28;;;;;;;1.70;0.50;;;;;;;8.73;100.00;101523.22;5033048;28;20917;-67
2024/02/20 04:35:54;;;;;;;2.47;0.67;;;;;;;8.74;100.00;101538.34;5034011;28;20526;-66
2024/02/20 04:38:21;;;;;;;1.70;0.50;;;;;;;8.68;100.00;101536.72;5033915;28;20493;-66
2024/02/20 04:40:49;;;;;;;2.07;0.63;;;;;;;8.57;100.00;101535.03;5034121;28;20447;-67
2024/02/20 04:43:16;;;;;;;2.40;1.00;;;;;;;8.56;100.00;101531.53;5033384;28;20521;-67
2024/02/20 04:45:44;;;;;;;2.00;0.60;;;;;;;8.54;100.00;101541.78;5034268;28;20448;-67
2024/02/20 04:48:11;;;;;;;2.33;0.60;;;;;;;8.49;100.00;101538.22;5033601;28;20585;-67
2024/02/20 04:50:37;;;;;;;2.10;0.73;;;;;;;8.46;100.00;101544.97;5033355;28;20890;-66
2024/02/20 04:53:04;;;;;;;2.77;1.17;;;;;;;8.33;100.00;101540.84;5033538;28;20546;-67
2024/02/20 04:55:31;;;;;;;2.47;0.90;;;;;;;8.28;100.00;101553.50;5033267;28;20972;-67
2024/02/20 04:57:57;;;;;;;2.07;0.60;;;;;;;8.21;100.00;101539.41;5033522;28;20927;-67
2024/02/20 05:00:24;;;;;;;1.80;0.60;;;;;;;8.18;100.00;101542.63;5033545;28;20439;-66
2024/02/20 05:02:52;;;;;;;2.03;0.53;;;;;;;8.15;100.00;101553.97;5033382;28;20499;-66
2024/02/20 05:05:19;;;;;;;1.70;0.50;;;;;;;8.11;100.00;101542.06;5033817;28;20458;-66
2024/02/20 05:07:45;;;;;;;1.77;0.60;;;;;;;8.06;100.00;101545.53;5033696;28;20449;-66
2024/02/20 05:10:12;;;;;;;1.60;0.40;;;;;;;8.05;100.00;101549.28;5033504;28;20463;-67
2024/02/20 05:12:43;;;;;;;1.87;0.53;;;;;;;8.04;100.00;101542.28;5033312;28;20537;-67
2024/02/20 05:15:10;;;;;;;1.97;0.50;;;;;;;8.05;100.00;101544.69;5033305;28;20511;-67
2024/02/20 05:17:37;;;;;;;2.43;0.80;;;;;;;8.06;100.00;101559.84;5033572;28;20494;-67
2024/02/20 05:20:06;;;;;;;2.63;0.77;;;;;;;8.04;100.00;101555.75;5033556;28;20434;-67
2024/02/20 05:22:33;;;;;;;1.70;0.40;;;;;;;8.05;100.00;101557.38;5033522;28;20459;-67
2024/02/20 05:25:00;;;;;;;2.60;0.77;;;;;;;8.07;100.00;101563.34;5032953;28;20443;-67
2024/02/20 05:27:26;;;;;;;3.13;0.70;;;;;;;8.05;100.00;101576.28;5033291;28;20471;-67
2024/02/20 05:29:54;;;;;;;2.50;0.80;;;;;;;8.06;100.00;101562.53;5033035;28;20482;-68
2024/02/20 05:32:20;;;;;;;1.50;0.40;;;;;;;8.07;100.00;101574.97;5032899;28;20567;-68
2024/02/20 05:34:47;;;;;;;1.97;0.43;;;;;;;8.01;100.00;101565.22;5033181;28;20439;-68
2024/02/20 05:37:15;;;;;;;2.03;0.50;;;;;;;8.05;100.00;101570.88;5032641;28;20871;-68
2024/02/20 05:39:42;;;;;;;1.70;0.47;;;;;;;8.04;100.00;101574.66;5032887;28;20517;-68
2024/02/20 05:42:09;;;;;;;1.60;0.40;;;;;;;8.07;100.00;101579.53;5032835;28;20503;-68
2024/02/20 05:44:36;;;;;;;1.60;0.50;;;;;;;8.05;100.00;101582.47;5032875;28;20522;-68
2024/02/20 05:47:03;;;;;;;1.67;0.50;;;;;;;8.06;100.00;101584.13;5036966;28;20442;-68
2024/02/20 05:49:29;;;;;;;1.50;0.40;;;;;;;8.04;100.00;101580.84;5036916;28;20486;-69
2024/02/20 05:51:56;;;;;;;1.50;0.40;;;;;;;8.06;100.00;101594.09;5036328;28;20996;-68
2024/02/20 05:54:24;;;;;;;6.27;0.73;;;;;;;8.07;100.00;101579.53;5037092;28;20640;-68
2024/02/20 05:56:50;;;;;;;1.70;0.40;;;;;;;8.00;100.00;101589.72;5036845;28;20895;-68
2024/02/20 05:59:17;;;;;;;1.90;0.60;;;;;;;7.96;100.00;101602.09;5036916;28;20442;-69
2024/02/20 06:01:43;;;;;;;2.00;0.80;;;;;;;7.99;100.00;101601.59;5036579;28;20534;-69
2024/02/20 06:04:10;;;;;;;1.60;0.40;;;;;;;8.00;100.00;101609.44;5036407;28;20451;-69
2024/02/20 06:06:37;;;;;;;2.43;0.90;;;;;;;8.02;100.00;101617.28;5036994;28;20447;-69
2024/02/20 06:09:03;;;;;;;1.80;0.60;;;;;;;8.03;100.00;101605.41;5036486;28;20485;-71
2024/02/20 06:11:31;;;;;;;1.70;0.60;;;;;;;7.99;100.00;101618.59;5036310;28;20473;-68
2024/02/20 06:13:58;;;;;;;1.73;0.47;;;;;;;7.97;100.00;101612.66;5036475;28;20793;-68
2024/02/20 06:16:25;;;;;;;1.60;0.50;;;;;;;8.00;100.00;101616.72;5036190;28;20557;-69
2024/02/20 06:18:52;;;;;;;1.70;0.50;;;;;;;8.02;100.00;101611.88;5036365;28;20434;-69
2024/02/20 06:21:20;;;;;;;1.70;0.50;;;;;;;7.89;100.00;101609.63;5061302;22;20552;-65
2024/02/20 06:23:47;;;;;;;1.97;0.50;;;;;;;7.81;100.00;101619.00;5056305;28;20466;-64
2024/02/20 06:26:17;;;;;;;1.50;0.40;;;;;;;7.75;100.00;101625.44;5056809;28;20466;-63
2024/02/20 06:28:45;;;;;;;2.07;0.70;;;;;;;7.73;100.00;101617.56;5056433;28;20486;-63
2024/02/20 06:31:12;;;;;;;1.70;0.50;;;;;;;7.70;100.00;101623.50;5055870;28;20442;-63
2024/02/20 06:33:41;;;;;;;1.70;0.50;;;;;;;7.69;100.00;101627.25;5055883;28;20537;-63
2024/02/20 06:36:08;;;;;;;1.70;0.40;;;;;;;7.66;100.00;101629.63;5056312;28;20857;-63
2024/02/20 06:38:35;;;;;;;2.23;0.70;;;;;;;7.63;100.00;101622.06;5055827;28;20505;-63
2024/02/20 06:41:01;;;;;;;1.50;0.40;;;;;;;7.62;100.00;101628.53;5055627;28;20922;-63
2024/02/20 06:43:28;;;;;;;2.00;0.70;;;;;;;7.62;100.00;101629.34;5055908;28;20498;-63
2024/02/20 06:45:57;;;;;;;4.20;0.80;;;;;;;7.58;100.00;101628.22;5055656;28;20895;-65
2024/02/20 06:48:24;;;;;;;2.30;0.70;;;;;;;7.63;100.00;101627.47;5056048;28;20517;-65
2024/02/20 06:50:50;;;;;;;2.47;0.83;;;;;;;7.66;100.00;101635.84;5056405;28;20507;-64
2024/02/20 06:53:17;;;;;;;1.70;0.40;;;;;;;7.61;100.00;101641.19;5055611;28;20537;-64
2024/02/20 06:55:44;;;;;;;2.50;0.63;;;;;;;7.62;100.00;101637.44;5055216;28;20449;-64
2024/02/20 06:58:10;;;;;;;1.60;0.40;;;;;;;7.64;100.00;101639.88;5055554;28;20511;-63
2024/02/20 07:00:37;;;;;;;1.60;0.40;;;;;;;7.56;100.00;101644.63;5055815;28;20467;-64
2024/02/20 07:03:05;;;;;;;1.80;0.40;;;;;;;7.59;100.00;101654.94;5055568;28;20985;-63
2024/02/20 07:05:32;;;;;;;1.60;0.40;;;;;;;7.60;100.00;101653.03;5055169;28;20934;-64
2024/02/20 07:07:59;;;;;;;1.90;0.70;;;;;;;7.61;100.00;101664.63;5055790;28;20792;-63
2024/02/20 07:10:25;;;;;;;2.17;0.73;;;;;;;7.66;100.00;101668.22;5055071;28;21028;-65
2024/02/20 07:12:55;;;;;;;1.60;0.43;;;;;;;7.66;100.00;101668.22;5054929;28;20462;-64
2024/02/20 07:15:23;;;;;;;2.27;0.67;;;;;;;7.72;100.00;101667.19;5055285;28;20534;-64
2024/02/20 07:17:49;;;;;;;3.10;1.23;;;;;;;7.75;100.00;101672.09;5055324;28;20927;-64
2024/02/20 07:20:17;;;;;;;2.23;0.63;;;;;;;7.80;100.00;101666.72;5055040;28;20525;-65
2024/02/20 07:22:44;;;;;;;2.00;0.80;;;;;;;7.80;100.00;101666.72;5054905;28;20494;-64
2024/02/20 07:25:12;;;;;;;2.10;0.80;;;;;;;7.82;100.00;101683.47;5055157;28;20491;-65
2024/02/20 07:27:38;;;;;;;1.80;0.60;;;;;;;7.83;100.00;101679.72;5054831;28;20941;-63
2024/02/20 07:30:10;;;;;;;2.73;0.87;;;;;;;7.89;100.00;101685.16;5055034;28;20488;-64
2024/02/20 07:32:36;;;;;;;1.70;0.50;;;;;;;7.86;100.00;101691.03;5054898;28;20503;-64
2024/02/20 07:35:03;;;;;;;1.90;0.60;;;;;;;7.91;100.00;101696.47;5054944;28;20529;-64
2024/02/20 07:37:31;;;;;;;2.80;0.93;;;;;;;7.92;100.00;101698.09;5054940;28;20529;-64
2024/02/20 07:39:58;;;;;;;1.90;0.70;;;;;;;7.91;100.00;101691.09;5054722;28;20464;-64
2024/02/20 07:42:24;;;;;;;2.00;0.60;;;;;;;7.92;100.00;101698.09;5054631;28;20462;-64
2024/02/20 07:44:51;;;;;;;1.73;0.57;;;;;;;7.98;100.00;101691.72;5054623;28;20478;-64
2024/02/20 07:47:17;;;;;;;1.83;0.53;;;;;;;8.01;100.00;101700.09;5054405;28;20481;-64
2024/02/20 07:49:45;;;;;;;2.20;0.60;;;;;;;8.04;100.00;101701.47;5054454;28;20488;-64
2024/02/20 07:52:12;;;;;;;1.77;0.47;;;;;;;8.07;100.00;101700.97;5054199;28;20996;-64
2024/02/20 07:54:40;;;;;;;1.70;0.50;;;;;;;8.16;100.00;101707.50;5054752;28;20805;-63
2024/02/20 07:57:06;;;;;;;2.67;1.20;;;;;;;8.14;100.00;101708.84;5054213;28;20530;-63
2024/02/20 07:59:33;;;;;;;3.90;0.63;;;;;;;8.19;100.00;101707.00;5054535;28;20462;-63
2024/02/20 08:02:02;;;;;;;1.60;0.50;;;;;;;8.15;100.00;101707.78;5054310;28;20470;-64
2024/02/20 08:04:29;;;;;;;1.87;0.60;;;;;;;8.10;100.00;101713.91;5054400;28;20946;-64
2024/02/20 08:06:57;;;;;;;1.67;0.40;;;;;;;8.10;100.00;101711.22;5054301;28;20434;-64
2024/02/20 08:09:23;;;;;;;1.60;0.40;;;;;;;8.11;100.00;101710.16;5053467;28;20486;-64
2024/02/20 08:11:51;;;;;;;1.50;0.40;;;;;;;8.09;100.00;101713.09;5054181;28;20820;-66
2024/02/20 08:14:19;;;;;;;2.53;0.60;;;;;;;8.11;100.00;101715.56;5054066;28;20444;-66
2024/02/20 08:16:46;;;;;;;2.30;0.70;;;;;;;8.13;100.00;101718.00;5054082;28;20546;-64
2024/02/20 08:19:12;;;;;;;2.33;0.73;;;;;;;8.21;100.00;101712.13;5054044;28;20473;-64
2024/02/20 08:21:39;;;;;;;1.60;0.40;;;;;;;8.27;100.00;101714.59;5053831;28;20541;-64
2024/02/20 08:24:06;;;;;;;1.60;0.43;;;;;;;8.34;100.00;101723.31;5054001;28;20436;-64
2024/02/20 08:26:33;;;;;;;1.80;0.60;;;;;;;8.37;100.00;101715.78;5053865;28;20437;-65
2024/02/20 08:29:01;;;;;;;1.70;0.47;;;;;;;8.37;100.00;101734.69;5053793;28;20848;-64
2024/02/20 08:31:27;;;;;;;2.93;0.60;;;;;;;8.38;100.00;101730.94;5053869;28;20448;-64
2024/02/20 08:33:54;;;;;;;1.70;0.47;;;;;;;8.40;100.00;101740.41;5054493;28;20533;-65
2024/02/20 08:36:21;;;;;;;1.70;0.50;;;;;;;8.38;100.00;101734.44;5053884;28;20473;-64
2024/02/20 08:38:48;;;;;;;2.10;0.70;;;;;;;8.34;100.00;101736.81;5054095;28;20525;-64
2024/02/20 08:41:15;;;;;;;1.90;0.63;;;;;;;8.28;100.00;101743.25;5054063;28;20448;-65
2024/02/20 08:43:43;;;;;;;1.80;0.50;;;;;;;8.19;100.00;101743.94;5053879;28;20545;-65
2024/02/20 08:46:11;;;;;;;5.10;1.03;;;;;;;8.09;100.00;101748.19;5053998;28;20447;-64
2024/02/20 08:48:38;;;;;;;1.77;0.63;;;;;;;8.00;100.00;101746.22;5053967;28;20448;-64
2024/02/20 08:51:04;;;;;;;4.37;0.80;;;;;;;7.98;100.00;101751.88;5053886;28;20573;-64
2024/02/20 08:53:31;;;;;;;4.53;1.50;;;;;;;7.98;100.00;101748.38;5053654;28;20549;-65
2024/02/20 08:55:58;;;;;;;4.03;1.27;;;;;;;7.94;100.00;101753.44;5053595;28;20525;-64
2024/02/20 08:58:25;;;;;;;2.93;0.80;;;;;;;7.89;100.00;101747.19;5053521;28;20525;-65
2024/02/20 09:00:52;;;;;;;2.33;0.83;;;;;;;7.81;100.00;101757.34;5053554;28;20489;-65
2024/02/20 09:03:20;;;;;;;3.43;1.20;;;;;;;7.86;100.00;101753.91;5053624;28;20458;-64
2024/02/20 09:05:46;;;;;;;1.70;0.60;;;;;;;7.80;100.00;101766.53;5053586;28;20791;-64
2024/02/20 09:08:15;;;;;;;2.30;0.53;;;;;;;7.81;100.00;101760.06;5053842;28;20438;-64
2024/02/20 09:10:42;;;;;;;2.50;0.67;;;;;;;7.81;100.00;101768.16;5053280;28;20819;-64
2024/02/20 09:13:08;;;;;;;1.83;0.57;;;;;;;7.76;100.00;101770.78;5053531;28;20531;-64
2024/02/20 09:15:35;;;;;;;4.40;1.30;;;;;;;7.81;100.00;101772.72;5053225;28;20438;-64
2024/02/20 09:18:03;;;;;;;3.60;0.90;;;;;;;7.82;100.00;101767.06;5053665;28;21027;-64
2024/02/20 09:20:31;;;;;;;3.03;0.90;;;;;;;7.78;100.00;101771.34;5056386;28;20453;-64
2024/02/20 09:22:57;;;;;;;2.90;0.87;;;;;;;7.88;100.00;101772.50;5057507;28;20458;-65
2024/02/20 09:25:24;;;;;;;1.90;0.70;;;;;;;7.89;100.00;101766.06;5057440;28;20454;-64
2024/02/20 09:27:51;;;;;;;1.60;0.50;;;;;;;7.93;100.00;101772.59;5057378;28;20861;-65
2024/02/20 09:30:17;;;;;;;6.43;0.90;;;;;;;7.96;100.00;101778.28;5057176;28;20484;-64
2024/02/20 09:32:44;;;;;;;2.07;0.50;;;;;;;8.01;100.00;101791.84;5056951;28;21070;-65
2024/02/20 09:35:11;;;;;;;2.10;0.60;;;;;;;8.06;100.00;101793.78;5058096;28;20446;-64
2024/02/20 09:37:39;;;;;;;3.03;0.83;;;;;;;8.07;100.00;101784.59;5057403;28;20529;-64
2024/02/20 09:40:06;;;;;;;2.43;0.73;;;;;;;8.16;100.00;101790.38;5057133;28;20481;-66
2024/02/20 09:42:39;;;;;;;3.30;0.70;;;;;;;8.22;100.00;101800.13;5056820;28;20974;-64
2024/02/20 09:45:12;;;;;;;1.60;0.50;;;;;;;8.31;100.00;101796.69;5056889;28;20418;-64
2024/02/20 09:47:39;;;;;;;2.00;0.60;;;;;;;8.38;98.86;101795.72;5056990;28;20425;-64
2024/02/20 09:50:07;;;;;;;3.07;0.70;;;;;;;8.38;99.71;101784.94;5057198;28;20510;-64
2024/02/20 09:52:34;;;;;;;2.37;0.50;;;;;;;8.44;96.15;101800.09;5056530;28;21017;-64
2024/02/20 09:55:04;;;;;;;2.50;1.00;;;;;;;8.44;94.26;101800.09;5056834;28;20446;-64
2024/02/20 09:57:33;;;;;;;3.43;1.07;;;;;;;8.27;95.86;101805.56;5057088;28;20446;-64
2024/02/20 09:59:59;;;;;;;2.07;0.57;;;;;;;8.29;97.12;101792.66;5056704;28;20434;-64
2024/02/20 10:02:28;;;;;;;4.27;0.97;;;;;;;8.44;96.20;101802.78;5056331;28;20888;-64
2024/02/20 10:04:55;;;;;;;2.20;0.70;;;;;;;8.48;93.45;101799.31;5056617;28;20467;-64
2024/02/20 10:07:21;;;;;;;5.53;0.63;;;;;;;8.41;94.81;101808.69;5056600;28;20470;-64
2024/02/20 10:09:48;;;;;;;2.40;0.73;;;;;;;8.46;92.62;101811.47;5056476;28;20517;-64
2024/02/20 10:12:21;;;;;;;2.67;0.70;;;;;;;8.52;90.94;101810.44;5056580;28;20457;-64
2024/02/20 10:14:48;;;;;;;3.17;0.60;;;;;;;8.58;88.81;101818.31;5056420;28;20465;-64
2024/02/20 10:17:15;;;;;;;2.53;0.87;;;;;;;8.63;90.08;101824.81;5056753;28;20607;-64
2024/02/20 10:19:42;;;;;;;4.27;1.03;;;;;;;8.72;89.24;101829.53;5056226;28;20922;-64
2024/02/20 10:22:10;;;;;;;1.60;0.50;;;;;;;8.64;89.79;101811.09;5056225;28;20470;-64
2024/02/20 10:24:36;;;;;;;4.53;0.73;;;;;;;8.75;88.96;101815.47;5056001;28;21001;-64
2024/02/20 10:27:03;;;;;;;3.30;1.00;;;;;;;8.70;88.34;101820.03;5055940;28;20896;-64
2024/02/20 10:29:31;;;;;;;3.23;0.60;;;;;;;8.76;88.58;101819.00;5055811;28;20525;-64
2024/02/20 10:31:58;;;;;;;2.57;0.73;;;;;;;8.66;90.43;101822.44;5055068;28;20998;-64
2024/02/20 10:34:25;;;;;;;3.43;0.93;;;;;;;8.64;90.75;101816.50;5056548;28;20438;-64
2024/02/20 10:36:51;;;;;;;1.70;0.47;;;;;;;8.63;90.12;101820.22;5056083;28;20442;-64
2024/02/20 10:39:21;;;;;;;2.80;0.60;;;;;;;8.75;90.53;101815.47;5056151;28;20522;-64
2024/02/20 10:41:48;;;;;;;2.50;0.83;;;;;;;8.82;90.11;101818.78;5055918;28;20445;-65
2024/02/20 10:44:15;;;;;;;1.60;0.40;;;;;;;8.83;89.94;101823.09;5056009;28;20942;-64
2024/02/20 10:46:43;;;;;;;4.77;1.00;;;;;;;8.91;87.59;101826.41;5055821;28;20465;-65
2024/02/20 10:49:19;;;;;;;5.50;0.80;;;;;;;8.94;88.08;101821.31;5055798;28;20481;-65
2024/02/20 10:51:46;;;;;;;3.30;0.70;;;;;;;8.96;87.91;101823.75;5055490;28;20470;-66
2024/02/20 10:54:13;;;;;;;1.93;0.70;;;;;;;8.93;87.70;101808.03;5055449;28;20538;-64
2024/02/20 10:56:41;;;;;;;1.50;0.40;;;;;;;8.94;88.05;101809.66;5055727;28;20474;-64
2024/02/20 10:59:10;;;;;;;10.33;1.07;;;;;;;8.96;87.83;101818.34;5055836;28;20466;-64
2024/02/20 11:01:38;;;;;;;1.90;0.40;;;;;;;8.98;88.84;101808.06;5055578;28;20442;-65
2024/02/20 11:04:08;;;;;;;2.10;0.90;;;;;;;8.95;88.80;101811.31;5055598;28;20492;-64
2024/02/20 11:06:37;;;;;;;2.10;0.57;;;;;;;9.03;87.97;101817.06;5055349;28;20438;-64
2024/02/20 11:09:10;;;;;;;3.10;0.63;;;;;;;9.09;87.85;101801.69;5055504;28;20469;-64
2024/02/20 11:11:37;;;;;;;3.73;0.60;;;;;;;9.09;88.48;101807.91;5055157;28;20481;-64
2024/02/20 11:14:04;;;;;;;2.10;0.63;;;;;;;9.12;87.38;101805.72;5055326;28;20472;-64
2024/02/20 11:16:35;;;;;;;3.40;0.93;;;;;;;9.08;88.87;101803.56;5055005;28;20476;-64
2024/02/20 11:19:03;;;;;;;3.40;0.80;;;;;;;9.13;87.70;101805.50;5055094;28;20445;-64
2024/02/20 11:21:31;;;;;;;2.33;0.60;;;;;;;9.16;88.24;101813.06;5054964;28;20450;-64
2024/02/20 11:24:10;;;;;;;2.73;0.50;;;;;;;9.24;87.05;101798.25;5055170;28;20514;-64
2024/02/20 11:26:38;;;;;;;3.23;0.70;;;;;;;9.29;87.20;101809.06;5055192;28;20419;-64